Time;durP1;ratioP1;P1;durP2;ratioP2;P2;SDS_P1;SDS_P2;PMS_P1;PMS_P2;Temp;Humidity;BMP_temperature;BMP_pressure;BME280_temperature;BME280_humidity;BME280_pressure;Samples;Min_cycle;Max_cycle;Signal;HPM_P1;HPM_P2
2023/03/11 00:01:39;;;;;;;2.70;1.10;;;;;;;1.01;100.00;94942.53;5041669;28;20029;-81
2023/03/11 00:04:06;;;;;;;2.10;1.10;;;;;;;1.01;100.00;94950.28;5054206;28;20031;-81
2023/03/11 00:06:34;;;;;;;3.07;1.00;;;;;;;1.08;100.00;94953.97;5038553;28;20458;-81
2023/03/11 00:09:00;;;;;;;2.40;1.17;;;;;;;1.02;100.00;94957.09;5027830;28;20558;-81
2023/03/11 00:11:26;;;;;;;2.67;1.20;;;;;;;1.00;100.00;94963.34;5040734;28;21081;-81
2023/03/11 00:13:51;;;;;;;1.57;1.07;;;;;;;1.03;100.00;94979.44;5054260;28;20441;-81
2023/03/11 00:16:17;;;;;;;6.87;1.23;;;;;;;0.98;100.00;94968.66;5060600;28;20036;-81
2023/03/11 00:18:43;;;;;;;4.73;1.10;;;;;;;1.05;100.00;94966.38;5048770;28;20528;-81
2023/03/11 00:21:14;;;;;;;4.67;1.63;;;;;;;1.06;100.00;94984.34;5025660;28;20087;-81
2023/03/11 00:23:40;;;;;;;4.10;1.53;;;;;;;0.99;100.00;94983.25;5042753;28;20033;-81
2023/03/11 00:26:05;;;;;;;3.00;1.30;;;;;;;1.09;100.00;94973.72;5062365;28;20793;-81
2023/03/11 00:28:31;;;;;;;2.23;1.33;;;;;;;0.98;100.00;94978.22;5048337;28;20056;-81
2023/03/11 00:30:56;;;;;;;2.90;1.40;;;;;;;0.95;100.00;94997.41;5028106;28;20037;-81
2023/03/11 00:33:22;;;;;;;1.87;1.20;;;;;;;0.92;100.00;94993.28;5024839;28;20108;-81
2023/03/11 00:35:49;;;;;;;2.33;1.27;;;;;;;0.93;100.00;95004.47;5041928;28;20061;-81
2023/03/11 00:38:16;;;;;;;2.83;1.60;;;;;;;0.90;100.00;95002.13;5022322;28;20060;-81
2023/03/11 00:40:44;;;;;;;2.23;1.03;;;;;;;0.96;100.00;95013.75;5059068;28;20506;-81
2023/03/11 00:43:11;;;;;;;3.47;1.50;;;;;;;0.90;100.00;95009.91;5043799;28;20601;-81
2023/03/11 00:45:37;;;;;;;2.50;1.30;;;;;;;0.84;100.00;94995.72;5044381;28;20462;-81
2023/03/11 00:48:03;;;;;;;3.20;1.83;;;;;;;0.89;100.00;94982.38;5046899;28;20460;-81
2023/03/11 00:50:31;;;;;;;3.43;1.57;;;;;;;0.79;100.00;94963.41;5042448;28;20465;-81
2023/03/11 00:52:57;;;;;;;8.17;1.83;;;;;;;0.76;100.00;94977.44;5031239;28;20031;-81
2023/03/11 00:55:30;;;;;;;3.70;1.57;;;;;;;0.72;100.00;94995.94;5030489;28;20478;-81
2023/03/11 00:57:59;;;;;;;2.58;1.20;;;;;;;0.69;100.00;94978.91;5032533;28;20462;-81
2023/03/11 01:00:30;;;;;;;3.97;1.80;;;;;;;0.68;100.00;95009.13;5046741;28;20090;-81
2023/03/11 01:02:56;;;;;;;2.70;1.37;;;;;;;0.71;100.00;95002.88;5080108;28;20467;-81
2023/03/11 01:05:25;;;;;;;4.03;1.53;;;;;;;0.73;100.00;95006.16;5027096;28;20487;-81
2023/03/11 01:07:51;;;;;;;3.40;1.30;;;;;;;0.74;100.00;95006.97;5048891;28;20542;-81
2023/03/11 01:10:17;;;;;;;2.40;1.33;;;;;;;0.77;100.00;94991.19;5046578;28;20468;-81
2023/03/11 01:12:43;;;;;;;2.40;1.10;;;;;;;0.75;100.00;95006.03;5046456;28;20269;-81
2023/03/11 01:15:18;;;;;;;2.20;0.90;;;;;;;0.67;100.00;94998.91;5029864;28;20569;-81
2023/03/11 01:17:45;;;;;;;2.57;1.17;;;;;;;0.72;100.00;94994.16;5045703;28;20123;-81
2023/03/11 01:20:11;;;;;;;3.87;1.20;;;;;;;0.73;100.00;95010.50;5045795;28;20467;-81
2023/03/11 01:22:37;;;;;;;1.73;0.93;;;;;;;0.67;100.00;94988.56;5029118;28;20613;-81
2023/03/11 01:25:03;;;;;;;3.00;1.07;;;;;;;0.66;100.00;95021.38;5046127;28;20554;-81
2023/03/11 01:27:29;;;;;;;1.80;1.00;;;;;;;0.70;100.00;94989.13;5047747;28;20543;-81
2023/03/11 01:29:55;;;;;;;3.03;1.20;;;;;;;0.61;100.00;95015.78;5036330;28;20816;-81
2023/03/11 01:32:21;;;;;;;2.20;1.03;;;;;;;0.60;100.00;95000.38;5045380;28;20467;-82
2023/03/11 01:34:46;;;;;;;3.13;1.00;;;;;;;0.70;100.00;95006.41;5061347;28;20067;-81
2023/03/11 01:37:12;;;;;;;2.20;1.30;;;;;;;0.68;100.00;95014.31;5058002;28;20033;-81
2023/03/11 01:39:38;;;;;;;4.27;2.13;;;;;;;0.58;100.00;95005.69;5028819;28;20041;-81
2023/03/11 01:42:04;;;;;;;3.20;1.03;;;;;;;0.54;100.00;95037.94;5076704;28;20628;-81
2023/03/11 01:44:30;;;;;;;2.57;0.97;;;;;;;0.61;100.00;95018.38;5028030;28;20029;-81
2023/03/11 01:46:58;;;;;;;2.13;1.00;;;;;;;0.47;100.00;95044.56;5031263;28;20509;-81
2023/03/11 01:49:28;;;;;;;1.57;0.83;;;;;;;0.40;100.00;95040.81;5031323;28;20035;-81
2023/03/11 01:51:59;;;;;;;2.63;0.60;;;;;;;0.39;100.00;95040.00;5060097;28;20443;-81
2023/03/11 01:54:29;;;;;;;1.00;0.67;;;;;;;0.44;100.00;95065.50;5030722;28;20440;-82
2023/03/11 01:56:56;;;;;;;2.93;0.70;;;;;;;0.39;100.00;95068.44;5078608;28;20748;-81
2023/03/11 01:59:28;;;;;;;2.17;0.63;;;;;;;0.32;100.00;95059.56;5025742;28;20471;-81
2023/03/11 02:02:21;;;;;;;1.70;0.60;;;;;;;0.26;100.00;95067.81;5027209;28;20573;-81
2023/03/11 02:04:49;;;;;;;2.20;0.88;;;;;;;0.28;100.00;95070.28;5029589;28;20960;-81
2023/03/11 02:07:15;;;;;;;4.90;0.80;;;;;;;0.15;100.00;95068.69;5041016;28;20040;-81
2023/03/11 02:09:41;;;;;;;1.47;0.70;;;;;;;0.05;100.00;95066.97;5029305;28;20488;-81
2023/03/11 02:12:09;;;;;;;1.80;0.60;;;;;;;0.07;100.00;95065.91;5062706;28;20453;-81
2023/03/11 02:14:40;;;;;;;2.50;0.50;;;;;;;0.11;100.00;95072.47;5062158;28;20021;-81
2023/03/11 02:17:07;;;;;;;1.03;0.40;;;;;;;0.05;100.00;95069.56;5028932;28;20798;-81
2023/03/11 02:19:57;;;;;;;4.10;0.67;;;;;;;-0.01;100.00;95078.63;5044783;28;20471;-82
2023/03/11 02:22:23;;;;;;;2.80;0.70;;;;;;;0.03;100.00;95071.44;5040420;28;20555;-81
2023/03/11 02:25:04;;;;;;;3.03;0.60;;;;;;;0.03;100.00;95085.19;5061784;28;20491;-81
2023/03/11 02:27:33;;;;;;;1.77;0.50;;;;;;;-0.09;100.00;95078.44;5070469;28;20467;-81
2023/03/11 02:30:03;;;;;;;3.77;1.13;;;;;;;-0.25;100.00;95087.38;5029998;28;20770;-81
2023/03/11 02:32:32;;;;;;;2.43;0.60;;;;;;;-0.14;100.00;95093.47;5044289;28;20475;-81
2023/03/11 02:34:58;;;;;;;2.07;0.47;;;;;;;-0.11;100.00;95104.38;5061154;28;20463;-82
2023/03/11 02:37:24;;;;;;;3.57;0.70;;;;;;;-0.25;100.00;95113.22;5044184;28;20454;-81
2023/03/11 02:40:21;;;;;;;2.43;0.60;;;;;;;-0.19;100.00;95116.28;5027658;28;20821;-81
2023/03/11 02:42:50;;;;;;;2.40;0.60;;;;;;;-0.33;100.00;95125.94;5056210;28;20455;-81
2023/03/11 02:45:23;;;;;;;1.10;0.33;;;;;;;-0.30;100.00;95132.63;5043378;28;20464;-81
2023/03/11 02:47:54;;;;;;;3.33;0.43;;;;;;;-0.36;100.00;95131.34;5060728;28;20795;-81
2023/03/11 02:50:20;;;;;;;0.77;0.50;;;;;;;-0.31;100.00;95134.38;5060743;28;20183;-81
2023/03/11 02:52:49;;;;;;;2.07;0.37;;;;;;;-0.42;100.00;95133.56;5028302;28;20548;-81
2023/03/11 02:55:16;;;;;;;1.17;0.30;;;;;;;-0.40;100.00;95121.34;5042236;28;20472;-81
2023/03/11 02:57:43;;;;;;;1.70;0.50;;;;;;;-0.37;100.00;95106.47;5081263;28;20487;-82
2023/03/11 03:00:13;;;;;;;2.07;0.70;;;;;;;-0.40;100.00;95106.69;5076057;28;20462;-81
2023/03/11 03:02:43;;;;;;;2.10;0.60;;;;;;;-0.64;100.00;95106.00;5025097;28;20475;-81
2023/03/11 03:05:10;;;;;;;1.47;0.30;;;;;;;-0.73;100.00;95102.38;5029766;28;20037;-81
2023/03/11 03:07:36;;;;;;;1.37;0.50;;;;;;;-0.79;100.00;95095.94;5055766;28;21070;-81
2023/03/11 03:10:03;;;;;;;2.37;0.60;;;;;;;-0.71;100.00;95103.88;5061301;28;20594;-81
2023/03/11 03:12:30;;;;;;;4.67;0.60;;;;;;;-0.81;100.00;95107.31;5059754;28;20033;-81
2023/03/11 03:14:57;;;;;;;1.63;0.67;;;;;;;-0.87;100.00;95118.09;5065573;28;20776;-81
2023/03/11 03:17:23;;;;;;;1.13;0.53;;;;;;;-0.90;100.00;95121.75;5031266;28;20036;-81
2023/03/11 03:19:49;;;;;;;1.77;0.60;;;;;;;-0.95;100.00;95119.50;5027917;28;21336;-81
2023/03/11 03:22:15;;;;;;;2.93;0.50;;;;;;;-0.93;100.00;95116.00;5078817;28;20463;-81
2023/03/11 03:24:41;;;;;;;1.77;0.40;;;;;;;-1.01;100.00;95117.38;5046548;28;20033;-82
2023/03/11 03:27:07;;;;;;;1.33;0.50;;;;;;;-1.17;100.00;95121.22;5030359;28;21101;-81
2023/03/11 03:29:33;;;;;;;6.93;0.70;;;;;;;-1.10;100.00;95122.44;5065267;28;20045;-81
2023/03/11 03:31:59;;;;;;;2.73;0.40;;;;;;;-1.12;100.00;95130.28;5027996;28;20460;-82
2023/03/11 03:34:25;;;;;;;5.70;0.80;;;;;;;-1.09;100.00;95134.38;5027990;28;20549;-81
2023/03/11 03:36:51;;;;;;;1.23;0.40;;;;;;;-1.22;100.00;95148.19;5047020;28;20463;-81
2023/03/11 03:39:18;;;;;;;5.47;0.60;;;;;;;-1.12;100.00;95152.69;5046676;28;20037;-81
2023/03/11 03:41:45;;;;;;;4.27;0.83;;;;;;;-1.16;100.00;95164.16;5045884;28;20529;-81
2023/03/11 03:44:11;;;;;;;4.97;0.57;;;;;;;-1.22;100.00;95166.25;5028507;28;20463;-81
2023/03/11 03:46:38;;;;;;;1.57;0.70;;;;;;;-1.24;100.00;95165.56;5047136;28;20044;-81
2023/03/11 03:49:05;;;;;;;3.63;0.70;;;;;;;-1.28;100.00;95171.84;5032532;28;20383;-81
2023/03/11 03:51:32;;;;;;;2.07;0.37;;;;;;;-1.25;100.00;95171.63;5029485;28;20463;-81
2023/03/11 03:54:07;;;;;;;3.50;0.90;;;;;;;-1.34;100.00;95171.50;5060952;28;20040;-82
2023/03/11 03:56:32;;;;;;;3.47;0.93;;;;;;;-1.26;100.00;95167.41;5029941;28;20459;-81
2023/03/11 03:58:59;;;;;;;3.63;0.57;;;;;;;-1.30;100.00;95162.63;5047546;28;20482;-81
2023/03/11 04:01:31;;;;;;;1.43;0.70;;;;;;;-1.37;100.00;95156.28;5046492;28;20444;-81
2023/03/11 04:03:57;;;;;;;3.70;0.60;;;;;;;-1.37;100.00;95166.59;5023364;28;20629;-81
2023/03/11 04:06:25;;;;;;;2.77;0.70;;;;;;;-1.33;100.00;95168.00;5043252;28;20565;-81
2023/03/11 04:08:56;;;;;;;5.35;0.75;;;;;;;-1.35;100.00;95167.28;5043164;28;20032;-81
2023/03/11 04:11:27;;;;;;;2.43;0.93;;;;;;;-1.47;100.00;95182.72;5075134;28;20064;-81
2023/03/11 04:13:53;;;;;;;4.87;2.00;;;;;;;-1.46;100.00;95183.53;5072185;28;20498;-81
2023/03/11 04:16:22;;;;;;;3.40;0.83;;;;;;;-1.43;100.00;95193.63;5027125;28;20032;-81
2023/03/11 04:18:49;;;;;;;1.73;0.43;;;;;;;-1.48;100.00;95200.88;5023575;28;20480;-82
2023/03/11 04:21:17;;;;;;;3.20;0.80;;;;;;;-1.43;100.00;95203.94;5036830;28;20463;-83
2023/03/11 04:23:43;;;;;;;2.07;0.67;;;;;;;-1.42;100.00;95210.75;5042384;28;20537;-81
2023/03/11 04:26:11;;;;;;;1.07;0.50;;;;;;;-1.49;100.00;95206.97;5041876;28;20494;-81
2023/03/11 04:28:37;;;;;;;2.17;0.50;;;;;;;-1.41;100.00;95204.63;5060723;28;21011;-81
2023/03/11 04:31:03;;;;;;;2.90;0.70;;;;;;;-1.36;100.00;95219.78;5018573;28;20042;-81
2023/03/11 04:33:31;;;;;;;4.47;0.77;;;;;;;-1.38;100.00;95217.31;5059600;28;20032;-82
2023/03/11 04:35:57;;;;;;;6.40;1.33;;;;;;;-1.35;100.00;95211.13;5077264;28;21031;-81
2023/03/11 04:38:23;;;;;;;1.67;0.53;;;;;;;-1.40;100.00;95208.88;5041780;28;20028;-81
2023/03/11 04:40:49;;;;;;;4.70;0.70;;;;;;;-1.42;100.00;95210.75;5042742;28;20518;-81
2023/03/11 04:43:15;;;;;;;1.23;0.50;;;;;;;-1.39;100.00;95214.84;5042863;28;20482;-81
2023/03/11 04:45:42;;;;;;;3.47;0.70;;;;;;;-1.29;100.00;95205.50;5043831;28;20077;-81
2023/03/11 04:48:08;;;;;;;2.43;0.50;;;;;;;-1.43;100.00;95203.94;5026852;28;20506;-81
2023/03/11 04:50:36;;;;;;;2.27;0.60;;;;;;;-1.36;100.00;95206.91;5027367;28;20451;-82
2023/03/11 04:53:02;;;;;;;5.23;0.67;;;;;;;-1.37;100.00;95213.81;5027681;28;20537;-81
2023/03/11 04:55:28;;;;;;;1.87;0.63;;;;;;;-1.40;100.00;95219.19;5027708;28;20459;-81
2023/03/11 04:57:54;;;;;;;4.93;0.60;;;;;;;-1.38;100.00;95208.75;5028126;28;20033;-82
2023/03/11 05:00:23;;;;;;;2.00;0.57;;;;;;;-1.33;100.00;95217.81;5061675;28;20145;-81
2023/03/11 05:02:52;;;;;;;3.33;0.60;;;;;;;-1.28;100.00;95213.13;5060309;28;20463;-81
2023/03/11 05:05:19;;;;;;;2.23;0.73;;;;;;;-1.33;100.00;95210.06;5076173;28;20467;-81
2023/03/11 05:07:46;;;;;;;5.83;2.17;;;;;;;-1.31;100.00;95218.53;5055350;28;20033;-81
2023/03/11 05:10:13;;;;;;;8.70;1.30;;;;;;;-1.27;100.00;95211.41;5026764;28;20479;-81
2023/03/11 05:12:39;;;;;;;2.97;0.50;;;;;;;-1.25;100.00;95218.06;5045205;28;21729;-81
2023/03/11 05:15:06;;;;;;;4.43;0.53;;;;;;;-1.19;100.00;95222.78;5029356;28;20455;-81
2023/03/11 05:17:33;;;;;;;2.10;0.67;;;;;;;-1.23;100.00;95223.94;5027432;28;21015;-81
2023/03/11 05:19:59;;;;;;;4.50;0.80;;;;;;;-1.20;100.00;95233.22;5062775;28;20474;-81
2023/03/11 05:22:30;;;;;;;2.07;0.53;;;;;;;-1.19;100.00;95238.25;5059350;28;21099;-81
2023/03/11 05:24:56;;;;;;;6.60;0.97;;;;;;;-1.16;100.00;95244.97;5025236;28;20558;-81
2023/03/11 05:27:21;;;;;;;6.33;1.63;;;;;;;-1.13;100.00;95247.31;5043801;28;20120;-82
2023/03/11 05:29:52;;;;;;;7.00;0.93;;;;;;;-1.16;100.00;95241.56;5023991;28;20087;-82
2023/03/11 05:32:19;;;;;;;3.37;0.90;;;;;;;-1.20;100.00;95244.34;5046909;28;20467;-81
2023/03/11 05:34:46;;;;;;;2.87;0.80;;;;;;;-1.20;100.00;95240.97;5061693;28;20467;-82
2023/03/11 05:37:14;;;;;;;2.00;0.77;;;;;;;-1.22;100.00;95247.97;5055876;28;20494;-82
2023/03/11 05:39:39;;;;;;;4.10;0.77;;;;;;;-1.20;100.00;95248.69;5057233;28;21035;-82
2023/03/11 05:42:06;;;;;;;3.43;0.97;;;;;;;-1.31;100.00;95254.66;5036585;28;20127;-82
2023/03/11 05:44:35;;;;;;;3.10;0.83;;;;;;;-1.34;100.00;95264.34;5060653;28;20517;-82
2023/03/11 05:47:02;;;;;;;2.47;1.13;;;;;;;-1.35;100.00;95263.50;5030416;28;20524;-83
2023/03/11 05:49:28;;;;;;;5.63;0.70;;;;;;;-1.47;100.00;95256.69;5076142;28;20553;-82
2023/03/11 05:51:54;;;;;;;7.00;1.00;;;;;;;-1.45;100.00;95257.38;5030023;28;20504;-82
2023/03/11 05:54:21;;;;;;;4.20;1.17;;;;;;;-1.48;100.00;95257.59;5029862;28;20431;-82
2023/03/11 05:56:49;;;;;;;2.67;0.87;;;;;;;-1.47;100.00;95249.75;5034180;28;20460;-81
2023/03/11 05:59:17;;;;;;;4.30;1.07;;;;;;;-1.49;100.00;95268.84;5061930;28;20537;-81
2023/03/11 06:01:45;;;;;;;7.10;1.20;;;;;;;-1.44;100.00;95264.19;5064361;28;20446;-82
2023/03/11 06:04:12;;;;;;;6.27;1.13;;;;;;;-1.47;100.00;95262.66;5031599;28;20444;-81
2023/03/11 06:06:40;;;;;;;2.83;1.00;;;;;;;-1.56;100.00;95265.88;5062290;28;20495;-82
2023/03/11 06:09:06;;;;;;;6.23;1.80;;;;;;;-1.56;100.00;95265.88;5029025;28;20510;-82
2023/03/11 06:11:33;;;;;;;7.53;3.33;;;;;;;-1.55;100.00;95272.66;5062714;28;20462;-81
2023/03/11 06:13:58;;;;;;;7.50;3.30;;;;;;;-1.61;100.00;95272.28;5027768;28;20605;-82
2023/03/11 06:16:27;;;;;;;9.97;3.30;;;;;;;-1.60;100.00;95274.78;5032183;28;21050;-81
2023/03/11 06:18:59;;;;;;;6.83;1.63;;;;;;;-1.68;100.00;95280.47;5045659;28;20459;-82
2023/03/11 06:21:25;;;;;;;5.50;1.30;;;;;;;-1.59;100.00;95284.16;5048953;28;20543;-82
2023/03/11 06:23:53;;;;;;;5.93;1.17;;;;;;;-1.72;100.00;95281.59;5031122;28;20463;-81
2023/03/11 06:26:20;;;;;;;4.97;1.20;;;;;;;-1.64;100.00;95281.09;5047941;28;20912;-82
2023/03/11 06:28:47;;;;;;;4.70;1.77;;;;;;;-1.70;100.00;95284.91;5061915;28;20555;-82
2023/03/11 06:31:25;;;;;;;4.87;0.80;;;;;;;-1.71;100.00;95291.00;5045108;28;20483;-81
2023/03/11 06:33:55;;;;;;;5.83;1.03;;;;;;;-1.59;100.00;95291.06;5031548;28;20459;-82
2023/03/11 06:36:26;;;;;;;4.77;1.20;;;;;;;-1.53;100.00;95303.53;5037209;28;20460;-81
2023/03/11 06:38:53;;;;;;;7.47;1.70;;;;;;;-1.40;100.00;95301.72;5050476;28;20937;-82
2023/03/11 06:41:21;;;;;;;6.10;2.07;;;;;;;-1.13;100.00;95300.69;5068792;28;20486;-81
2023/03/11 06:43:50;;;;;;;3.00;1.20;;;;;;;-1.13;100.00;95305.84;5038094;28;20458;-81
2023/03/11 06:46:19;;;;;;;3.67;0.90;;;;;;;-1.01;100.00;95302.34;5055280;28;21024;-81
2023/03/11 06:48:53;;;;;;;4.05;1.20;;;;;;;-0.86;100.00;95305.59;5033535;28;20554;-81
2023/03/11 06:51:21;;;;;;;3.83;1.40;;;;;;;-0.60;100.00;95311.41;5034750;28;20498;-81
2023/03/11 06:53:52;;;;;;;4.77;1.40;;;;;;;-0.74;100.00;95305.50;5048499;28;20556;-81
2023/03/11 06:56:22;;;;;;;7.22;2.13;;;;;;;-0.33;100.00;95316.28;5032914;28;20450;-81
2023/03/11 06:59:01;;;;;;;9.20;1.80;;;;;;;-0.05;100.00;95309.81;5028097;28;20047;-81
2023/03/11 07:01:34;;;;;;;4.63;1.10;;;;;;;-0.18;100.00;95314.28;5035439;28;20028;-81
2023/03/11 07:04:02;;;;;;;6.50;1.63;;;;;;;0.23;100.00;95311.09;5029482;28;21083;-81
2023/03/11 07:06:29;;;;;;;8.40;1.67;;;;;;;0.56;100.00;95317.19;5041885;28;20589;-81
2023/03/11 07:09:03;;;;;;;6.60;1.33;;;;;;;0.28;100.00;95329.69;5029651;28;20447;-81
2023/03/11 07:11:30;;;;;;;5.30;1.07;;;;;;;-0.03;100.00;95333.81;5049197;28;20467;-82
2023/03/11 07:14:04;;;;;;;4.32;1.10;;;;;;;-0.03;100.00;95344.16;5038561;28;20484;-81
2023/03/11 07:16:33;;;;;;;6.80;1.20;;;;;;;-0.05;100.00;95343.44;5028870;28;20047;-80
2023/03/11 07:19:08;;;;;;;4.10;1.00;;;;;;;0.06;100.00;95347.78;5061429;28;20578;-79
2023/03/11 07:21:48;;;;;;;5.10;1.53;;;;;;;0.05;100.00;95354.72;5031868;28;20467;-80
2023/03/11 07:24:15;;;;;;;5.43;1.60;;;;;;;0.07;100.00;95346.81;5032269;28;20470;-80
2023/03/11 07:26:45;;;;;;;6.60;1.13;;;;;;;0.18;100.00;95344.25;5035494;28;20482;-79
2023/03/11 07:29:10;;;;;;;4.47;1.30;;;;;;;0.17;100.00;95346.03;5081217;28;20479;-80
2023/03/11 07:31:36;;;;;;;2.93;0.90;;;;;;;0.25;100.00;95357.53;5029109;28;20479;-80
2023/03/11 07:34:10;;;;;;;4.33;1.30;;;;;;;0.30;100.00;95356.22;5077464;28;20048;-79
2023/03/11 07:36:36;;;;;;;3.93;1.10;;;;;;;0.57;100.00;95367.97;5064078;28;20051;-80
2023/03/11 07:39:04;;;;;;;12.37;1.50;;;;;;;0.43;100.00;95369.03;5031900;28;20455;-80
2023/03/11 07:41:32;;;;;;;6.00;1.33;;;;;;;0.39;100.00;95368.47;5030950;28;20043;-80
2023/03/11 07:43:59;;;;;;;6.70;1.67;;;;;;;0.36;100.00;95373.06;5050784;28;20561;-79
2023/03/11 07:46:27;;;;;;;6.33;1.10;;;;;;;0.44;100.00;95373.31;5023150;28;20456;-80
2023/03/11 07:49:03;;;;;;;3.80;1.27;;;;;;;0.34;100.00;95373.19;5065060;28;20460;-80
2023/03/11 07:51:31;;;;;;;5.20;1.27;;;;;;;0.40;100.00;95372.72;5062972;28;20483;-80
2023/03/11 07:53:58;;;;;;;5.37;1.67;;;;;;;0.56;100.00;95374.09;5049442;28;20471;-80
2023/03/11 07:56:31;;;;;;;5.47;1.20;;;;;;;0.70;100.00;95379.00;5023361;28;20459;-80
2023/03/11 07:58:59;;;;;;;4.28;1.02;;;;;;;0.76;100.00;95378.53;5048754;28;20558;-81
2023/03/11 08:01:29;;;;;;;4.27;0.80;;;;;;;0.68;100.00;95380.91;5038079;28;20033;-80
2023/03/11 08:03:57;;;;;;;5.97;1.00;;;;;;;0.90;100.00;95392.97;5045548;28;20479;-79
2023/03/11 08:06:34;;;;;;;5.17;1.47;;;;;;;1.13;100.00;95384.22;5036030;28;20443;-80
2023/03/11 08:09:06;;;;;;;4.53;1.40;;;;;;;1.18;100.00;95389.03;5035697;28;20944;-81
2023/03/11 08:11:32;;;;;;;2.07;0.90;;;;;;;1.06;100.00;95390.81;5027430;28;20482;-81
2023/03/11 08:13:58;;;;;;;8.67;1.87;;;;;;;1.44;100.00;95386.09;5049710;28;20594;-82
2023/03/11 08:16:25;;;;;;;3.60;1.57;;;;;;;1.40;100.00;95391.53;5030618;28;20032;-81
2023/03/11 08:19:01;;;;;;;5.93;1.47;;;;;;;1.18;100.00;95399.41;5027823;28;20037;-82
2023/03/11 08:21:30;;;;;;;3.53;1.47;;;;;;;1.95;100.00;95391.41;5076799;28;20533;-81
2023/03/11 08:24:18;;;;;;;7.43;1.40;;;;;;;1.46;100.00;95416.13;5031084;28;20821;-81
2023/03/11 08:26:47;;;;;;;6.60;1.23;;;;;;;1.67;100.00;95413.56;5042431;28;20583;-80
2023/03/11 08:29:12;;;;;;;9.23;1.33;;;;;;;1.47;100.00;95416.94;5050828;28;20486;-80
2023/03/11 08:31:38;;;;;;;5.33;1.07;;;;;;;1.50;100.00;95412.34;5029935;28;20479;-80
2023/03/11 08:34:07;;;;;;;5.73;1.30;;;;;;;1.69;100.00;95416.03;5030728;28;20040;-82
2023/03/11 08:36:36;;;;;;;5.63;1.23;;;;;;;1.56;100.00;95417.03;5054158;28;20036;-86
2023/03/11 08:39:03;;;;;;;5.77;1.23;;;;;;;1.56;100.00;95418.81;5031121;28;20867;-83
2023/03/11 08:41:37;;;;;;;7.50;2.10;;;;;;;1.83;100.00;95418.31;5072780;28;20478;-83
2023/03/11 08:44:11;;;;;;;7.77;1.80;;;;;;;1.77;100.00;95429.19;5061408;28;20471;-79
2023/03/11 08:46:39;;;;;;;6.57;2.00;;;;;;;2.04;100.00;95426.91;5030349;28;20464;-81
2023/03/11 08:49:05;;;;;;;3.23;1.43;;;;;;;2.02;100.00;95423.66;5030868;28;20459;-81
2023/03/11 08:51:33;;;;;;;3.77;1.30;;;;;;;1.63;100.00;95423.38;5064446;28;20467;-82
2023/03/11 08:54:00;;;;;;;4.77;1.33;;;;;;;1.73;100.00;95430.41;5048696;28;20476;-82
2023/03/11 08:56:26;;;;;;;7.13;1.60;;;;;;;2.24;100.00;95425.28;5064024;28;21318;-82
2023/03/11 08:58:53;;;;;;;4.93;1.23;;;;;;;2.23;100.00;95431.41;5035010;28;20448;-82
2023/03/11 09:01:23;;;;;;;4.70;1.70;;;;;;;2.30;100.00;95432.53;5033154;28;20463;-82
2023/03/11 09:03:55;;;;;;;6.67;1.87;;;;;;;2.20;100.00;95441.22;5040048;28;20475;-82
2023/03/11 09:06:21;;;;;;;11.90;4.37;;;;;;;2.50;100.00;95430.88;5055178;28;20463;-82
2023/03/11 09:08:49;;;;;;;18.03;6.83;;;;;;;3.12;100.00;95428.22;5067697;28;20824;-83
2023/03/11 09:11:16;;;;;;;6.60;2.20;;;;;;;3.14;100.00;95431.50;5035603;28;20036;-83
2023/03/11 09:13:42;;;;;;;6.57;1.13;;;;;;;2.83;100.00;95431.56;5051284;28;20472;-82
2023/03/11 09:16:20;;;;;;;6.77;2.37;;;;;;;2.45;100.00;95435.66;5032183;28;20040;-83
2023/03/11 09:18:52;;;;;;;3.13;1.10;;;;;;;2.48;100.00;95435.38;5054686;28;20028;-82
2023/03/11 09:21:24;;;;;;;4.03;1.03;;;;;;;2.64;100.00;95442.69;5052668;28;20052;-83
2023/03/11 09:23:53;;;;;;;6.60;1.30;;;;;;;2.70;100.00;95433.56;5066940;28;21011;-82
2023/03/11 09:26:18;;;;;;;8.40;1.20;;;;;;;2.39;100.00;95446.53;5051439;28;20045;-82
2023/03/11 09:28:47;;;;;;;6.90;1.17;;;;;;;2.29;100.00;95440.47;5037707;28;20079;-83
2023/03/11 09:31:15;;;;;;;4.23;1.20;;;;;;;2.15;100.00;95449.41;5049873;28;20123;-83
2023/03/11 09:33:46;;;;;;;6.63;1.40;;;;;;;2.12;100.00;95450.47;5065613;28;20041;-83
2023/03/11 09:36:18;;;;;;;4.30;1.10;;;;;;;2.14;100.00;95452.91;5034254;28;20033;-82
2023/03/11 09:38:59;;;;;;;4.43;1.30;;;;;;;2.02;100.00;95454.78;5047310;28;20491;-83
2023/03/11 09:41:52;;;;;;;3.23;0.93;;;;;;;1.77;100.00;95460.31;5050109;28;20943;-83
2023/03/11 09:44:40;;;;;;;3.10;1.17;;;;;;;1.40;100.00;95468.44;4994251;28;20480;-83
2023/03/11 09:47:23;;;;;;;6.33;1.87;;;;;;;1.57;100.00;95470.50;5036564;28;21130;-83
2023/03/11 09:50:08;;;;;;;7.30;1.77;;;;;;;1.48;100.00;95463.47;5051748;28;20464;-82
2023/03/11 09:52:58;;;;;;;2.90;1.03;;;;;;;1.69;100.00;95466.09;5071525;28;20041;-83
2023/03/11 09:55:43;;;;;;;6.70;2.33;;;;;;;2.50;100.00;95469.81;5046398;28;21380;-80
2023/03/11 09:58:27;;;;;;;7.63;1.87;;;;;;;3.34;100.00;95463.56;5067073;28;20485;-82
2023/03/11 10:00:54;;;;;;;9.67;2.23;;;;;;;3.98;100.00;95463.88;5051433;28;20498;-82
2023/03/11 10:03:34;;;;;;;5.97;1.50;;;;;;;3.16;100.00;95476.38;5044278;28;20029;-83
2023/03/11 10:06:28;;;;;;;4.47;1.47;;;;;;;2.93;100.00;95471.38;5065104;28;20032;-83
2023/03/11 10:09:13;;;;;;;8.00;1.37;;;;;;;2.82;100.00;95477.47;5061963;28;20052;-83
2023/03/11 10:11:56;;;;;;;5.07;1.40;;;;;;;2.98;100.00;95476.16;5038881;28;20091;-83
2023/03/11 10:14:42;;;;;;;;;;;;;;;3.34;100.00;95463.56;5045371;28;20064;-83
2023/03/11 10:17:14;;;;;;;1.43;0.73;;;;;;;2.93;100.00;95473.97;5067838;28;20442;-83
2023/03/11 10:19:39;;;;;;;4.47;1.20;;;;;;;2.69;100.00;95468.25;5031117;28;20033;-83
2023/03/11 10:22:47;;;;;;;5.17;0.90;;;;;;;2.21;100.00;95480.00;5047686;28;20885;-83
2023/03/11 10:25:21;;;;;;;5.67;1.07;;;;;;;2.56;100.00;95478.84;5047620;28;20041;-83
2023/03/11 10:28:04;;;;;;;3.27;0.93;;;;;;;2.78;100.00;95467.47;5051090;28;20108;-83
2023/03/11 10:30:35;;;;;;;4.47;1.35;;;;;;;2.88;100.00;95472.69;5048974;28;20041;-83
2023/03/11 10:33:11;;;;;;;3.07;1.27;;;;;;;2.91;100.00;95467.25;5050550;28;20037;-83
2023/03/11 10:35:43;;;;;;;4.73;1.30;;;;;;;3.10;100.00;95464.72;5039387;28;20067;-83
2023/03/11 10:38:27;;;;;;;3.83;1.23;;;;;;;3.07;100.00;95467.59;5050937;28;20029;-83
2023/03/11 10:40:56;;;;;;;3.20;1.20;;;;;;;3.04;100.00;95479.06;5069567;28;20037;-83
2023/03/11 10:43:25;;;;;;;5.17;2.00;;;;;;;3.11;100.00;95479.34;5049103;28;20029;-83
2023/03/11 10:45:52;;;;;;;5.37;1.67;;;;;;;2.83;100.00;95473.09;5066461;28;20054;-81
2023/03/11 10:48:25;;;;;;;2.67;0.90;;;;;;;2.99;100.00;95476.03;5082766;28;20040;-83
2023/03/11 10:50:58;;;;;;;3.95;0.95;;;;;;;2.95;100.00;95474.66;5049103;28;20029;-84
2023/03/11 10:53:24;;;;;;;1.50;0.80;;;;;;;3.02;100.00;95480.97;5026101;28;20032;-83
2023/03/11 10:55:53;;;;;;;3.90;1.17;;;;;;;3.18;100.00;95475.25;5052714;28;20067;-83
2023/03/11 10:58:23;;;;;;;3.37;1.00;;;;;;;4.31;100.00;95466.19;5053047;28;20028;-84
2023/03/11 11:01:11;;;;;;;3.27;1.10;;;;;;;3.94;100.00;95472.09;5032731;28;20051;-84
2023/03/11 11:03:48;;;;;;;2.53;0.90;;;;;;;4.22;100.00;95473.03;5017516;28;20482;-83
2023/03/11 11:06:44;;;;;;;3.53;1.30;;;;;;;3.84;100.00;95477.28;5047425;28;20051;-83
2023/03/11 11:09:21;;;;;;;4.43;0.90;;;;;;;4.04;100.00;95472.09;5031995;28;20186;-83
2023/03/11 11:12:14;;;;;;;3.57;0.97;;;;;;;4.31;100.00;95474.00;5065565;28;20121;-83
2023/03/11 11:14:46;;;;;;;4.10;1.20;;;;;;;4.45;100.00;95471.75;5048506;28;20029;-83
2023/03/11 11:17:16;;;;;;;3.30;0.90;;;;;;;4.53;100.00;95478.03;5037815;28;20079;-84
2023/03/11 11:19:44;;;;;;;1.40;0.73;;;;;;;4.16;100.00;95471.00;5032278;28;20090;-83
2023/03/11 11:22:16;;;;;;;5.10;1.07;;;;;;;5.11;100.00;95472.66;5038970;28;20033;-82
2023/03/11 11:24:55;;;;;;;3.40;1.13;;;;;;;6.21;100.00;95476.91;5056321;28;20047;-82
2023/03/11 11:27:28;;;;;;;2.67;0.80;;;;;;;6.02;100.00;95468.25;5024270;28;20047;-82
2023/03/11 11:30:15;;;;;;;4.23;1.00;;;;;;;7.36;100.00;95463.53;5027708;28;20047;-82
2023/03/11 11:32:41;;;;;;;2.87;1.13;;;;;;;7.72;100.00;95458.88;5043161;28;20032;-83
2023/03/11 11:35:13;;;;;;;5.40;1.60;;;;;;;7.84;100.00;95461.19;5030975;28;20041;-81
2023/03/11 11:37:48;;;;;;;4.87;0.70;;;;;;;6.54;100.00;95473.56;5033925;28;20064;-82
2023/03/11 11:40:14;;;;;;;2.77;1.10;;;;;;;5.46;100.00;95474.50;5048645;28;20048;-82
2023/03/11 11:42:56;;;;;;;2.63;1.20;;;;;;;5.29;100.00;95478.72;5048760;28;20037;-83